sensor_id;sensor_type;location;lat;lon;timestamp;temperature;humidity
45115;DHT22;30877;43.706;10.780;2023-05-29T00:01:44;22.90;96.70
45115;DHT22;30877;43.706;10.780;2023-05-29T00:04:13;22.80;96.70
45115;DHT22;30877;43.706;10.780;2023-05-29T00:06:41;22.70;96.70
45115;DHT22;30877;43.706;10.780;2023-05-29T00:09:09;22.70;96.70
45115;DHT22;30877;43.706;10.780;2023-05-29T00:11:37;22.70;96.70
45115;DHT22;30877;43.706;10.780;2023-05-29T00:14:05;22.70;96.70
45115;DHT22;30877;43.706;10.780;2023-05-29T00:16:33;22.60;96.70
45115;DHT22;30877;43.706;10.780;2023-05-29T00:19:02;22.60;96.70
45115;DHT22;30877;43.706;10.780;2023-05-29T00:21:32;22.60;96.70
45115;DHT22;30877;43.706;10.780;2023-05-29T00:24:00;22.50;96.70
45115;DHT22;30877;43.706;10.780;2023-05-29T00:26:28;22.40;96.70
45115;DHT22;30877;43.706;10.780;2023-05-29T00:28:58;22.30;96.70
45115;DHT22;30877;43.706;10.780;2023-05-29T00:31:26;22.20;96.70
45115;DHT22;30877;43.706;10.780;2023-05-29T00:33:55;22.20;96.70
45115;DHT22;30877;43.706;10.780;2023-05-29T00:36:24;22.10;96.70
45115;DHT22;30877;43.706;10.780;2023-05-29T00:38:54;22.10;96.70
45115;DHT22;30877;43.706;10.780;2023-05-29T00:41:22;22.00;96.70
45115;DHT22;30877;43.706;10.780;2023-05-29T00:43:50;22.00;96.70
45115;DHT22;30877;43.706;10.780;2023-05-29T00:46:19;21.90;96.70
45115;DHT22;30877;43.706;10.780;2023-05-29T00:48:48;21.90;96.70
45115;DHT22;30877;43.706;10.780;2023-05-29T00:51:17;22.00;96.70
45115;DHT22;30877;43.706;10.780;2023-05-29T00:53:45;22.00;96.70
45115;DHT22;30877;43.706;10.780;2023-05-29T00:56:15;22.00;96.70
45115;DHT22;30877;43.706;10.780;2023-05-29T00:58:45;22.00;96.70
45115;DHT22;30877;43.706;10.780;2023-05-29T01:01:14;22.00;96.70
45115;DHT22;30877;43.706;10.780;2023-05-29T01:03:43;22.00;96.70
45115;DHT22;30877;43.706;10.780;2023-05-29T01:06:12;21.90;96.70
45115;DHT22;30877;43.706;10.780;2023-05-29T01:08:40;21.90;96.70
45115;DHT22;30877;43.706;10.780;2023-05-29T01:11:17;21.80;96.70
45115;DHT22;30877;43.706;10.780;2023-05-29T01:13:49;21.80;96.70
45115;DHT22;30877;43.706;10.780;2023-05-29T01:16:24;21.80;96.70
45115;DHT22;30877;43.706;10.780;2023-05-29T01:19:00;21.70;96.70
45115;DHT22;30877;43.706;10.780;2023-05-29T01:21:50;21.70;96.70
45115;DHT22;30877;43.706;10.780;2023-05-29T01:24:31;21.60;96.70
45115;DHT22;30877;43.706;10.780;2023-05-29T01:27:04;21.50;96.70
45115;DHT22;30877;43.706;10.780;2023-05-29T01:29:35;21.50;96.70
45115;DHT22;30877;43.706;10.780;2023-05-29T01:32:05;21.50;96.70
45115;DHT22;30877;43.706;10.780;2023-05-29T01:34:34;21.60;96.70
45115;DHT22;30877;43.706;10.780;2023-05-29T01:37:02;21.60;96.70
45115;DHT22;30877;43.706;10.780;2023-05-29T01:39:32;21.60;96.70
45115;DHT22;30877;43.706;10.780;2023-05-29T01:42:03;21.50;96.70
45115;DHT22;30877;43.706;10.780;2023-05-29T01:44:34;21.50;96.70
45115;DHT22;30877;43.706;10.780;2023-05-29T01:47:03;21.50;96.70
45115;DHT22;30877;43.706;10.780;2023-05-29T01:49:35;21.50;96.70
45115;DHT22;30877;43.706;10.780;2023-05-29T01:52:04;21.40;96.70
45115;DHT22;30877;43.706;10.780;2023-05-29T01:54:33;21.40;96.70
45115;DHT22;30877;43.706;10.780;2023-05-29T01:57:03;21.40;96.70
45115;DHT22;30877;43.706;10.780;2023-05-29T01:59:34;21.30;96.70
45115;DHT22;30877;43.706;10.780;2023-05-29T02:02:07;21.30;96.70
45115;DHT22;30877;43.706;10.780;2023-05-29T02:04:35;21.30;96.70
45115;DHT22;30877;43.706;10.780;2023-05-29T02:07:03;21.10;96.70
45115;DHT22;30877;43.706;10.780;2023-05-29T02:09:31;21.10;96.70
45115;DHT22;30877;43.706;10.780;2023-05-29T02:11:59;21.10;96.70
45115;DHT22;30877;43.706;10.780;2023-05-29T02:14:30;21.10;96.70
45115;DHT22;30877;43.706;10.780;2023-05-29T02:16:59;21.10;96.70
45115;DHT22;30877;43.706;10.780;2023-05-29T02:19:29;21.00;96.70
45115;DHT22;30877;43.706;10.780;2023-05-29T02:21:57;21.00;96.70
45115;DHT22;30877;43.706;10.780;2023-05-29T02:24:25;21.00;96.70
45115;DHT22;30877;43.706;10.780;2023-05-29T02:26:53;21.10;96.70
45115;DHT22;30877;43.706;10.780;2023-05-29T02:29:22;21.00;96.70
45115;DHT22;30877;43.706;10.780;2023-05-29T02:31:51;20.90;96.70
45115;DHT22;30877;43.706;10.780;2023-05-29T02:34:20;20.90;96.70
45115;DHT22;30877;43.706;10.780;2023-05-29T02:36:50;20.80;96.70
45115;DHT22;30877;43.706;10.780;2023-05-29T02:39:19;20.80;96.70
45115;DHT22;30877;43.706;10.780;2023-05-29T02:41:47;20.70;96.70
45115;DHT22;30877;43.706;10.780;2023-05-29T02:44:15;20.70;96.70
45115;DHT22;30877;43.706;10.780;2023-05-29T02:46:44;20.70;96.70
45115;DHT22;30877;43.706;10.780;2023-05-29T02:49:14;20.70;96.70
45115;DHT22;30877;43.706;10.780;2023-05-29T02:51:41;20.70;96.70
45115;DHT22;30877;43.706;10.780;2023-05-29T02:54:09;20.70;96.70
45115;DHT22;30877;43.706;10.780;2023-05-29T02:56:40;20.60;96.70
45115;DHT22;30877;43.706;10.780;2023-05-29T02:59:08;20.70;96.70
45115;DHT22;30877;43.706;10.780;2023-05-29T03:01:36;20.60;96.70
45115;DHT22;30877;43.706;10.780;2023-05-29T03:04:05;20.70;96.70
45115;DHT22;30877;43.706;10.780;2023-05-29T03:06:35;20.60;96.70
45115;DHT22;30877;43.706;10.780;2023-05-29T03:09:04;20.50;96.70
45115;DHT22;30877;43.706;10.780;2023-05-29T03:11:34;20.50;96.70
45115;DHT22;30877;43.706;10.780;2023-05-29T03:14:03;20.40;96.70
45115;DHT22;30877;43.706;10.780;2023-05-29T03:16:31;20.40;96.70
45115;DHT22;30877;43.706;10.780;2023-05-29T03:19:00;20.50;96.70
45115;DHT22;30877;43.706;10.780;2023-05-29T03:21:28;20.40;96.70
45115;DHT22;30877;43.706;10.780;2023-05-29T03:23:58;20.40;96.70
45115;DHT22;30877;43.706;10.780;2023-05-29T03:26:26;20.30;96.70
45115;DHT22;30877;43.706;10.780;2023-05-29T03:28:54;20.20;96.70
45115;DHT22;30877;43.706;10.780;2023-05-29T03:31:22;20.10;96.70
45115;DHT22;30877;43.706;10.780;2023-05-29T03:33:50;20.20;96.70
45115;DHT22;30877;43.706;10.780;2023-05-29T03:36:26;20.20;96.70
45115;DHT22;30877;43.706;10.780;2023-05-29T03:38:54;20.20;96.70
45115;DHT22;30877;43.706;10.780;2023-05-29T03:41:24;20.20;96.70
45115;DHT22;30877;43.706;10.780;2023-05-29T03:43:54;20.10;96.70
45115;DHT22;30877;43.706;10.780;2023-05-29T03:46:26;20.20;96.70
45115;DHT22;30877;43.706;10.780;2023-05-29T03:48:55;20.20;96.70
45115;DHT22;30877;43.706;10.780;2023-05-29T03:51:23;20.30;96.70
45115;DHT22;30877;43.706;10.780;2023-05-29T03:53:54;20.30;96.70
45115;DHT22;30877;43.706;10.780;2023-05-29T03:56:24;20.30;96.70
45115;DHT22;30877;43.706;10.780;2023-05-29T03:58:53;20.30;96.70
45115;DHT22;30877;43.706;10.780;2023-05-29T04:01:21;20.30;96.70
45115;DHT22;30877;43.706;10.780;2023-05-29T04:03:49;20.40;96.70
45115;DHT22;30877;43.706;10.780;2023-05-29T04:06:17;20.40;96.70
45115;DHT22;30877;43.706;10.780;2023-05-29T04:08:45;20.30;96.70
45115;DHT22;30877;43.706;10.780;2023-05-29T04:11:14;20.20;96.70
45115;DHT22;30877;43.706;10.780;2023-05-29T04:13:43;20.10;96.70
45115;DHT22;30877;43.706;10.780;2023-05-29T04:16:11;20.10;96.70
45115;DHT22;30877;43.706;10.780;2023-05-29T04:18:39;20.10;96.70
45115;DHT22;30877;43.706;10.780;2023-05-29T04:21:08;20.20;96.70
45115;DHT22;30877;43.706;10.780;2023-05-29T04:23:36;20.20;96.70
45115;DHT22;30877;43.706;10.780;2023-05-29T04:26:04;20.30;96.70
45115;DHT22;30877;43.706;10.780;2023-05-29T04:28:35;20.30;96.70
45115;DHT22;30877;43.706;10.780;2023-05-29T04:31:06;20.30;96.70
45115;DHT22;30877;43.706;10.780;2023-05-29T04:33:36;20.30;96.70
45115;DHT22;30877;43.706;10.780;2023-05-29T04:36:06;20.20;96.70
45115;DHT22;30877;43.706;10.780;2023-05-29T04:38:39;20.30;96.70
45115;DHT22;30877;43.706;10.780;2023-05-29T04:41:08;20.40;96.70
45115;DHT22;30877;43.706;10.780;2023-05-29T04:43:39;20.40;96.70
45115;DHT22;30877;43.706;10.780;2023-05-29T04:46:09;20.40;96.70
45115;DHT22;30877;43.706;10.780;2023-05-29T04:48:40;20.50;96.70
45115;DHT22;30877;43.706;10.780;2023-05-29T04:51:11;20.50;96.70
45115;DHT22;30877;43.706;10.780;2023-05-29T04:53:40;20.40;96.70
45115;DHT22;30877;43.706;10.780;2023-05-29T04:56:10;20.40;96.70
45115;DHT22;30877;43.706;10.780;2023-05-29T04:58:41;20.50;96.70
45115;DHT22;30877;43.706;10.780;2023-05-29T05:01:11;20.50;96.70
45115;DHT22;30877;43.706;10.780;2023-05-29T05:03:42;20.50;96.70
45115;DHT22;30877;43.706;10.780;2023-05-29T05:06:10;20.60;96.70
45115;DHT22;30877;43.706;10.780;2023-05-29T05:08:40;20.60;96.70
45115;DHT22;30877;43.706;10.780;2023-05-29T05:11:09;20.60;96.70
45115;DHT22;30877;43.706;10.780;2023-05-29T05:13:39;20.60;96.70
45115;DHT22;30877;43.706;10.780;2023-05-29T05:16:07;20.50;96.70
45115;DHT22;30877;43.706;10.780;2023-05-29T05:18:39;20.60;96.70
45115;DHT22;30877;43.706;10.780;2023-05-29T05:21:08;20.60;96.70
45115;DHT22;30877;43.706;10.780;2023-05-29T05:23:36;20.70;96.70
45115;DHT22;30877;43.706;10.780;2023-05-29T05:26:25;20.70;96.70
45115;DHT22;30877;43.706;10.780;2023-05-29T05:28:55;20.80;96.70
45115;DHT22;30877;43.706;10.780;2023-05-29T05:31:27;20.80;96.70
45115;DHT22;30877;43.706;10.780;2023-05-29T05:33:56;20.80;96.70
45115;DHT22;30877;43.706;10.780;2023-05-29T05:36:24;20.90;96.70
45115;DHT22;30877;43.706;10.780;2023-05-29T05:38:57;20.90;96.70
45115;DHT22;30877;43.706;10.780;2023-05-29T05:41:26;20.80;96.70
45115;DHT22;30877;43.706;10.780;2023-05-29T05:43:54;20.90;96.70
45115;DHT22;30877;43.706;10.780;2023-05-29T05:46:38;20.90;96.70
45115;DHT22;30877;43.706;10.780;2023-05-29T05:49:08;20.80;96.70
45115;DHT22;30877;43.706;10.780;2023-05-29T05:51:36;20.80;96.70
45115;DHT22;30877;43.706;10.780;2023-05-29T05:54:04;20.90;96.70
45115;DHT22;30877;43.706;10.780;2023-05-29T05:56:31;20.90;96.70
45115;DHT22;30877;43.706;10.780;2023-05-29T05:58:59;21.00;96.70
45115;DHT22;30877;43.706;10.780;2023-05-29T06:01:28;21.00;96.70
45115;DHT22;30877;43.706;10.780;2023-05-29T06:03:56;21.20;96.70
45115;DHT22;30877;43.706;10.780;2023-05-29T06:06:25;21.20;96.70
45115;DHT22;30877;43.706;10.780;2023-05-29T06:08:54;21.20;96.70
45115;DHT22;30877;43.706;10.780;2023-05-29T06:11:24;21.30;96.70
45115;DHT22;30877;43.706;10.780;2023-05-29T06:13:53;21.50;96.70
45115;DHT22;30877;43.706;10.780;2023-05-29T06:16:27;21.60;96.70
45115;DHT22;30877;43.706;10.780;2023-05-29T06:18:56;21.60;96.70
45115;DHT22;30877;43.706;10.780;2023-05-29T06:21:27;21.60;96.70
45115;DHT22;30877;43.706;10.780;2023-05-29T06:23:56;21.70;96.70
45115;DHT22;30877;43.706;10.780;2023-05-29T06:26:26;21.80;96.70
45115;DHT22;30877;43.706;10.780;2023-05-29T06:28:54;21.80;96.70
45115;DHT22;30877;43.706;10.780;2023-05-29T06:31:22;21.90;96.70
45115;DHT22;30877;43.706;10.780;2023-05-29T06:33:50;22.00;96.70
45115;DHT22;30877;43.706;10.780;2023-05-29T06:36:18;22.10;96.70
45115;DHT22;30877;43.706;10.780;2023-05-29T06:38:50;22.10;96.70
45115;DHT22;30877;43.706;10.780;2023-05-29T06:41:18;22.20;96.70
45115;DHT22;30877;43.706;10.780;2023-05-29T06:43:46;22.20;96.70
45115;DHT22;30877;43.706;10.780;2023-05-29T06:46:14;22.20;96.70
45115;DHT22;30877;43.706;10.780;2023-05-29T06:48:42;22.30;96.70
45115;DHT22;30877;43.706;10.780;2023-05-29T06:51:10;22.30;96.70
45115;DHT22;30877;43.706;10.780;2023-05-29T06:53:41;22.40;96.70
45115;DHT22;30877;43.706;10.780;2023-05-29T06:56:14;22.40;96.70
45115;DHT22;30877;43.706;10.780;2023-05-29T06:58:43;22.50;96.70
45115;DHT22;30877;43.706;10.780;2023-05-29T07:01:14;22.60;96.70
45115;DHT22;30877;43.706;10.780;2023-05-29T07:03:54;22.60;96.70
45115;DHT22;30877;43.706;10.780;2023-05-29T07:06:22;22.60;96.70
45115;DHT22;30877;43.706;10.780;2023-05-29T07:08:49;22.70;96.70
45115;DHT22;30877;43.706;10.780;2023-05-29T07:11:19;22.80;96.70
45115;DHT22;30877;43.706;10.780;2023-05-29T07:13:47;22.80;96.70
45115;DHT22;30877;43.706;10.780;2023-05-29T07:16:15;22.90;96.70
45115;DHT22;30877;43.706;10.780;2023-05-29T07:18:55;23.00;96.70
45115;DHT22;30877;43.706;10.780;2023-05-29T07:21:24;23.00;96.70
45115;DHT22;30877;43.706;10.780;2023-05-29T07:23:52;23.10;96.70
45115;DHT22;30877;43.706;10.780;2023-05-29T07:26:22;23.20;96.70
45115;DHT22;30877;43.706;10.780;2023-05-29T07:28:51;23.20;96.70
45115;DHT22;30877;43.706;10.780;2023-05-29T07:31:19;23.30;96.70
45115;DHT22;30877;43.706;10.780;2023-05-29T07:33:49;23.40;96.70
45115;DHT22;30877;43.706;10.780;2023-05-29T07:36:17;23.50;96.70
45115;DHT22;30877;43.706;10.780;2023-05-29T07:38:49;23.60;96.70
45115;DHT22;30877;43.706;10.780;2023-05-29T07:41:18;23.70;96.70
45115;DHT22;30877;43.706;10.780;2023-05-29T07:43:57;23.80;96.70
45115;DHT22;30877;43.706;10.780;2023-05-29T07:46:25;23.90;96.70
45115;DHT22;30877;43.706;10.780;2023-05-29T07:49:05;24.00;96.70
45115;DHT22;30877;43.706;10.780;2023-05-29T07:51:33;24.10;96.70
45115;DHT22;30877;43.706;10.780;2023-05-29T07:54:01;24.20;96.70
45115;DHT22;30877;43.706;10.780;2023-05-29T07:56:29;24.30;96.70
45115;DHT22;30877;43.706;10.780;2023-05-29T07:59:00;24.30;96.70
45115;DHT22;30877;43.706;10.780;2023-05-29T08:01:28;24.40;96.70
45115;DHT22;30877;43.706;10.780;2023-05-29T08:03:56;24.50;96.70
45115;DHT22;30877;43.706;10.780;2023-05-29T08:06:29;24.60;96.70
45115;DHT22;30877;43.706;10.780;2023-05-29T08:09:00;24.70;96.70
45115;DHT22;30877;43.706;10.780;2023-05-29T08:11:29;24.70;96.70
45115;DHT22;30877;43.706;10.780;2023-05-29T08:13:59;24.80;96.70
45115;DHT22;30877;43.706;10.780;2023-05-29T08:16:28;24.80;96.70
45115;DHT22;30877;43.706;10.780;2023-05-29T08:19:04;24.90;96.70
45115;DHT22;30877;43.706;10.780;2023-05-29T08:21:33;24.90;96.70
45115;DHT22;30877;43.706;10.780;2023-05-29T08:24:02;25.00;96.70
45115;DHT22;30877;43.706;10.780;2023-05-29T08:26:32;25.20;96.70
45115;DHT22;30877;43.706;10.780;2023-05-29T08:29:02;25.30;96.70
45115;DHT22;30877;43.706;10.780;2023-05-29T08:31:30;25.30;96.70
45115;DHT22;30877;43.706;10.780;2023-05-29T08:33:59;25.30;96.70
45115;DHT22;30877;43.706;10.780;2023-05-29T08:36:27;25.40;96.70
45115;DHT22;30877;43.706;10.780;2023-05-29T08:38:55;25.50;96.70
45115;DHT22;30877;43.706;10.780;2023-05-29T08:41:37;25.50;96.70
45115;DHT22;30877;43.706;10.780;2023-05-29T08:44:13;25.60;96.70
45115;DHT22;30877;43.706;10.780;2023-05-29T08:46:44;25.60;96.70
45115;DHT22;30877;43.706;10.780;2023-05-29T08:49:15;25.70;96.70
45115;DHT22;30877;43.706;10.780;2023-05-29T08:51:47;25.60;96.70
45115;DHT22;30877;43.706;10.780;2023-05-29T08:54:18;25.70;96.70
45115;DHT22;30877;43.706;10.780;2023-05-29T08:56:46;25.70;96.70
45115;DHT22;30877;43.706;10.780;2023-05-29T08:59:16;25.70;96.70
45115;DHT22;30877;43.706;10.780;2023-05-29T09:01:45;25.60;96.70
45115;DHT22;30877;43.706;10.780;2023-05-29T09:04:14;25.70;96.70
45115;DHT22;30877;43.706;10.780;2023-05-29T09:06:43;25.80;96.70
45115;DHT22;30877;43.706;10.780;2023-05-29T09:09:12;25.70;96.70
45115;DHT22;30877;43.706;10.780;2023-05-29T09:11:41;25.70;96.70
45115;DHT22;30877;43.706;10.780;2023-05-29T09:16:57;25.60;96.70
45115;DHT22;30877;43.706;10.780;2023-05-29T09:19:25;25.70;96.70
45115;DHT22;30877;43.706;10.780;2023-05-29T09:22:00;25.70;96.70
45115;DHT22;30877;43.706;10.780;2023-05-29T09:24:29;25.90;96.70
45115;DHT22;30877;43.706;10.780;2023-05-29T09:26:59;26.00;96.70
45115;DHT22;30877;43.706;10.780;2023-05-29T09:29:30;26.00;96.70
45115;DHT22;30877;43.706;10.780;2023-05-29T09:32:00;26.10;96.70
45115;DHT22;30877;43.706;10.780;2023-05-29T09:34:31;26.40;96.70
45115;DHT22;30877;43.706;10.780;2023-05-29T09:37:01;26.70;96.70
45115;DHT22;30877;43.706;10.780;2023-05-29T09:39:44;26.80;96.70
45115;DHT22;30877;43.706;10.780;2023-05-29T09:42:13;26.80;96.70
45115;DHT22;30877;43.706;10.780;2023-05-29T09:44:42;26.60;96.70
45115;DHT22;30877;43.706;10.780;2023-05-29T09:47:14;26.70;96.70
45115;DHT22;30877;43.706;10.780;2023-05-29T09:49:43;26.70;96.70
45115;DHT22;30877;43.706;10.780;2023-05-29T09:52:12;26.90;96.70
45115;DHT22;30877;43.706;10.780;2023-05-29T09:54:44;27.30;96.70
45115;DHT22;30877;43.706;10.780;2023-05-29T09:57:17;27.40;96.70
45115;DHT22;30877;43.706;10.780;2023-05-29T09:59:45;27.60;96.70
45115;DHT22;30877;43.706;10.780;2023-05-29T10:02:20;27.50;96.70
45115;DHT22;30877;43.706;10.780;2023-05-29T10:04:50;27.50;96.70
45115;DHT22;30877;43.706;10.780;2023-05-29T10:07:25;27.80;96.70
45115;DHT22;30877;43.706;10.780;2023-05-29T10:09:59;27.80;96.70
45115;DHT22;30877;43.706;10.780;2023-05-29T10:12:29;27.80;96.70
45115;DHT22;30877;43.706;10.780;2023-05-29T10:14:59;27.80;96.70
45115;DHT22;30877;43.706;10.780;2023-05-29T10:17:33;27.70;96.70
45115;DHT22;30877;43.706;10.780;2023-05-29T10:20:05;27.90;96.70
45115;DHT22;30877;43.706;10.780;2023-05-29T10:22:39;28.10;96.70
45115;DHT22;30877;43.706;10.780;2023-05-29T10:25:10;28.30;96.70
45115;DHT22;30877;43.706;10.780;2023-05-29T10:27:39;28.50;96.70
45115;DHT22;30877;43.706;10.780;2023-05-29T10:30:12;28.50;96.70
45115;DHT22;30877;43.706;10.780;2023-05-29T10:32:56;28.60;96.70
45115;DHT22;30877;43.706;10.780;2023-05-29T10:35:37;28.50;96.70
45115;DHT22;30877;43.706;10.780;2023-05-29T10:38:11;28.40;96.70
45115;DHT22;30877;43.706;10.780;2023-05-29T10:40:40;28.30;96.70
45115;DHT22;30877;43.706;10.780;2023-05-29T10:43:09;28.30;96.70
45115;DHT22;30877;43.706;10.780;2023-05-29T10:45:56;28.40;96.70
45115;DHT22;30877;43.706;10.780;2023-05-29T10:48:42;28.50;96.70
45115;DHT22;30877;43.706;10.780;2023-05-29T10:51:27;28.60;96.70
45115;DHT22;30877;43.706;10.780;2023-05-29T10:53:55;28.80;96.70
45115;DHT22;30877;43.706;10.780;2023-05-29T10:56:28;29.00;96.70
45115;DHT22;30877;43.706;10.780;2023-05-29T10:58:58;29.30;96.70
45115;DHT22;30877;43.706;10.780;2023-05-29T11:01:29;29.50;96.70
45115;DHT22;30877;43.706;10.780;2023-05-29T11:04:28;29.50;96.70
45115;DHT22;30877;43.706;10.780;2023-05-29T11:06:58;29.40;96.70
45115;DHT22;30877;43.706;10.780;2023-05-29T11:09:29;29.30;96.70
45115;DHT22;30877;43.706;10.780;2023-05-29T11:12:21;29.30;96.70
45115;DHT22;30877;43.706;10.780;2023-05-29T11:15:05;29.20;96.70
45115;DHT22;30877;43.706;10.780;2023-05-29T11:17:43;29.20;96.70
45115;DHT22;30877;43.706;10.780;2023-05-29T11:20:37;29.20;96.70
45115;DHT22;30877;43.706;10.780;2023-05-29T11:23:15;29.30;96.70
45115;DHT22;30877;43.706;10.780;2023-05-29T11:25:46;29.40;96.70
45115;DHT22;30877;43.706;10.780;2023-05-29T11:28:15;29.40;96.70
45115;DHT22;30877;43.706;10.780;2023-05-29T11:30:45;29.40;96.70
45115;DHT22;30877;43.706;10.780;2023-05-29T11:33:24;29.40;96.70
45115;DHT22;30877;43.706;10.780;2023-05-29T11:35:58;29.40;96.70
45115;DHT22;30877;43.706;10.780;2023-05-29T11:38:27;29.30;96.70
45115;DHT22;30877;43.706;10.780;2023-05-29T11:41:17;29.40;96.70
45115;DHT22;30877;43.706;10.780;2023-05-29T11:43:57;29.60;96.70
45115;DHT22;30877;43.706;10.780;2023-05-29T11:46:25;29.70;96.70
45115;DHT22;30877;43.706;10.780;2023-05-29T11:48:55;29.90;96.70
45115;DHT22;30877;43.706;10.780;2023-05-29T11:51:25;30.00;96.70
45115;DHT22;30877;43.706;10.780;2023-05-29T11:53:53;29.80;96.70
45115;DHT22;30877;43.706;10.780;2023-05-29T11:56:26;29.70;96.70
45115;DHT22;30877;43.706;10.780;2023-05-29T11:58:54;29.70;96.70
45115;DHT22;30877;43.706;10.780;2023-05-29T12:01:24;30.00;96.70
45115;DHT22;30877;43.706;10.780;2023-05-29T12:03:53;30.00;96.70
45115;DHT22;30877;43.706;10.780;2023-05-29T12:06:33;29.80;96.70
45115;DHT22;30877;43.706;10.780;2023-05-29T12:09:06;30.00;96.70
45115;DHT22;30877;43.706;10.780;2023-05-29T12:11:34;30.20;96.70
45115;DHT22;30877;43.706;10.780;2023-05-29T12:14:03;30.30;96.70
45115;DHT22;30877;43.706;10.780;2023-05-29T12:16:34;30.40;96.70
45115;DHT22;30877;43.706;10.780;2023-05-29T12:19:03;30.40;96.70
45115;DHT22;30877;43.706;10.780;2023-05-29T12:21:33;30.60;96.70
45115;DHT22;30877;43.706;10.780;2023-05-29T12:24:05;30.70;96.70
45115;DHT22;30877;43.706;10.780;2023-05-29T12:26:42;30.80;96.70
45115;DHT22;30877;43.706;10.780;2023-05-29T12:29:11;30.80;96.70
45115;DHT22;30877;43.706;10.780;2023-05-29T12:31:39;30.90;96.70
45115;DHT22;30877;43.706;10.780;2023-05-29T12:34:12;30.60;96.70
45115;DHT22;30877;43.706;10.780;2023-05-29T12:36:43;30.40;96.70
45115;DHT22;30877;43.706;10.780;2023-05-29T12:39:12;30.30;96.70
45115;DHT22;30877;43.706;10.780;2023-05-29T12:41:41;30.50;96.70
45115;DHT22;30877;43.706;10.780;2023-05-29T12:44:09;30.60;96.70
45115;DHT22;30877;43.706;10.780;2023-05-29T12:46:39;30.60;96.70
45115;DHT22;30877;43.706;10.780;2023-05-29T12:49:14;30.60;96.70
45115;DHT22;30877;43.706;10.780;2023-05-29T12:51:45;30.60;96.70
45115;DHT22;30877;43.706;10.780;2023-05-29T12:54:15;30.60;96.70
45115;DHT22;30877;43.706;10.780;2023-05-29T12:56:44;30.40;96.70
45115;DHT22;30877;43.706;10.780;2023-05-29T12:59:14;30.40;96.70
45115;DHT22;30877;43.706;10.780;2023-05-29T13:01:43;30.40;96.70
45115;DHT22;30877;43.706;10.780;2023-05-29T13:04:12;30.40;96.70
45115;DHT22;30877;43.706;10.780;2023-05-29T13:06:40;30.50;96.70
45115;DHT22;30877;43.706;10.780;2023-05-29T13:09:11;30.50;96.70
45115;DHT22;30877;43.706;10.780;2023-05-29T13:11:40;30.60;96.70
45115;DHT22;30877;43.706;10.780;2023-05-29T13:14:09;30.60;96.70
45115;DHT22;30877;43.706;10.780;2023-05-29T13:16:37;30.60;96.70
45115;DHT22;30877;43.706;10.780;2023-05-29T13:19:06;30.60;96.70
45115;DHT22;30877;43.706;10.780;2023-05-29T13:21:35;30.90;96.70
45115;DHT22;30877;43.706;10.780;2023-05-29T13:24:03;31.30;96.70
45115;DHT22;30877;43.706;10.780;2023-05-29T13:26:34;31.60;96.70
45115;DHT22;30877;43.706;10.780;2023-05-29T13:29:03;31.60;96.70
45115;DHT22;30877;43.706;10.780;2023-05-29T13:31:31;31.40;96.70
45115;DHT22;30877;43.706;10.780;2023-05-29T13:34:00;31.30;96.70
45115;DHT22;30877;43.706;10.780;2023-05-29T13:36:28;31.30;96.70
45115;DHT22;30877;43.706;10.780;2023-05-29T13:38:56;31.60;96.70
45115;DHT22;30877;43.706;10.780;2023-05-29T13:41:25;32.00;96.70
45115;DHT22;30877;43.706;10.780;2023-05-29T13:43:55;32.40;96.70
45115;DHT22;30877;43.706;10.780;2023-05-29T13:46:23;32.70;96.70
45115;DHT22;30877;43.706;10.780;2023-05-29T13:48:51;32.90;96.70
45115;DHT22;30877;43.706;10.780;2023-05-29T13:51:20;32.90;95.90
45115;DHT22;30877;43.706;10.780;2023-05-29T13:53:48;33.00;96.70
45115;DHT22;30877;43.706;10.780;2023-05-29T13:56:16;32.70;96.70
45115;DHT22;30877;43.706;10.780;2023-05-29T13:58:44;32.50;96.70
45115;DHT22;30877;43.706;10.780;2023-05-29T14:01:14;32.50;96.70
45115;DHT22;30877;43.706;10.780;2023-05-29T14:03:46;32.90;96.20
45115;DHT22;30877;43.706;10.780;2023-05-29T14:06:15;33.30;95.50
45115;DHT22;30877;43.706;10.780;2023-05-29T14:08:43;33.50;94.20
45115;DHT22;30877;43.706;10.780;2023-05-29T14:11:12;33.40;94.70
45115;DHT22;30877;43.706;10.780;2023-05-29T14:13:40;33.40;95.60
45115;DHT22;30877;43.706;10.780;2023-05-29T14:16:08;33.40;95.30
45115;DHT22;30877;43.706;10.780;2023-05-29T14:18:38;33.20;95.10
45115;DHT22;30877;43.706;10.780;2023-05-29T14:21:07;33.20;96.20
45115;DHT22;30877;43.706;10.780;2023-05-29T14:23:36;33.30;95.30
45115;DHT22;30877;43.706;10.780;2023-05-29T14:26:04;33.30;94.40
45115;DHT22;30877;43.706;10.780;2023-05-29T14:28:33;33.40;94.60
45115;DHT22;30877;43.706;10.780;2023-05-29T14:31:01;33.50;94.30
45115;DHT22;30877;43.706;10.780;2023-05-29T14:33:30;34.10;93.60
45115;DHT22;30877;43.706;10.780;2023-05-29T14:36:00;34.50;92.90
45115;DHT22;30877;43.706;10.780;2023-05-29T14:38:29;35.00;92.90
45115;DHT22;30877;43.706;10.780;2023-05-29T14:40:57;35.50;92.20
45115;DHT22;30877;43.706;10.780;2023-05-29T14:43:37;35.60;92.30
45115;DHT22;30877;43.706;10.780;2023-05-29T14:46:06;35.60;90.60
45115;DHT22;30877;43.706;10.780;2023-05-29T14:48:34;35.80;89.90
45115;DHT22;30877;43.706;10.780;2023-05-29T14:51:04;36.00;90.40
45115;DHT22;30877;43.706;10.780;2023-05-29T14:53:33;36.10;90.20
45115;DHT22;30877;43.706;10.780;2023-05-29T14:56:01;36.30;90.20
45115;DHT22;30877;43.706;10.780;2023-05-29T14:58:29;36.40;90.40
45115;DHT22;30877;43.706;10.780;2023-05-29T15:00:58;36.40;88.90
45115;DHT22;30877;43.706;10.780;2023-05-29T15:03:26;36.50;88.50
45115;DHT22;30877;43.706;10.780;2023-05-29T15:05:55;36.20;88.80
45115;DHT22;30877;43.706;10.780;2023-05-29T15:08:25;36.30;89.80
45115;DHT22;30877;43.706;10.780;2023-05-29T15:10:53;36.50;89.30
45115;DHT22;30877;43.706;10.780;2023-05-29T15:13:21;36.70;88.80
45115;DHT22;30877;43.706;10.780;2023-05-29T15:15:50;36.70;88.60
45115;DHT22;30877;43.706;10.780;2023-05-29T15:18:18;36.50;89.10
45115;DHT22;30877;43.706;10.780;2023-05-29T15:20:46;36.40;89.30
45115;DHT22;30877;43.706;10.780;2023-05-29T15:23:15;36.50;89.20
45115;DHT22;30877;43.706;10.780;2023-05-29T15:25:45;36.30;89.40
45115;DHT22;30877;43.706;10.780;2023-05-29T15:28:14;36.50;89.90
45115;DHT22;30877;43.706;10.780;2023-05-29T15:30:42;36.60;88.80
45115;DHT22;30877;43.706;10.780;2023-05-29T15:33:11;36.80;88.50
45115;DHT22;30877;43.706;10.780;2023-05-29T15:35:39;36.80;88.70
45115;DHT22;30877;43.706;10.780;2023-05-29T15:38:09;36.90;89.30